createdAt,value
2023-03-26T00:01:52.809Z,11.48
2023-03-26T00:04:33.447Z,11.25
2023-03-26T00:07:10.934Z,10.97
2023-03-26T00:09:47.256Z,10.69
2023-03-26T00:12:20.271Z,11.30
2023-03-26T00:14:52.830Z,11.84
2023-03-26T00:17:26.657Z,11.86
2023-03-26T00:20:43.185Z,11.56
2023-03-26T00:24:15.134Z,11.14
2023-03-26T00:26:53.503Z,10.84
2023-03-26T00:29:28.143Z,10.59
2023-03-26T00:32:01.838Z,11.15
2023-03-26T00:34:34.573Z,11.70
2023-03-26T00:37:04.941Z,11.71
2023-03-26T00:39:36.494Z,11.47
2023-03-26T00:42:06.988Z,11.15
2023-03-26T00:44:34.844Z,10.92
2023-03-26T00:47:03.734Z,10.66
2023-03-26T00:49:32.104Z,11.13
2023-03-26T00:52:03.570Z,11.70
2023-03-26T00:54:37.067Z,11.75
2023-03-26T00:57:06.763Z,11.55
2023-03-26T00:59:36.492Z,11.29
2023-03-26T01:02:04.764Z,11.05
2023-03-26T01:04:35.315Z,10.78
2023-03-26T01:07:22.670Z,11.23
2023-03-26T01:10:09.433Z,11.81
2023-03-26T01:12:37.252Z,11.68
2023-03-26T01:15:05.372Z,11.50
2023-03-26T01:17:38.042Z,11.28
2023-03-26T01:20:26.562Z,11.00
2023-03-26T01:22:56.400Z,10.68
2023-03-26T01:25:23.777Z,11.15
2023-03-26T01:27:52.544Z,11.55
2023-03-26T01:30:37.184Z,11.56
2023-03-26T01:33:33.953Z,11.35
2023-03-26T01:36:17.050Z,10.99
2023-03-26T01:38:48.376Z,10.69
2023-03-26T01:41:32.984Z,10.41
2023-03-26T01:44:07.116Z,10.90
2023-03-26T01:46:36.457Z,11.42
2023-03-26T01:49:05.016Z,11.38
2023-03-26T01:51:34.803Z,11.14
2023-03-26T01:54:04.285Z,10.88
2023-03-26T01:56:53.469Z,10.67
2023-03-26T01:59:45.543Z,10.43
2023-03-26T02:02:26.771Z,11.15
2023-03-26T02:05:16.185Z,11.68
2023-03-26T02:08:07.906Z,11.52
2023-03-26T02:10:45.424Z,11.23
2023-03-26T02:13:13.119Z,10.95
2023-03-26T02:15:41.465Z,10.68
2023-03-26T02:18:13.430Z,10.42
2023-03-26T02:20:41.877Z,10.90
2023-03-26T02:23:09.962Z,11.49
2023-03-26T02:25:43.871Z,11.54
2023-03-26T02:28:22.265Z,11.31
2023-03-26T02:31:01.918Z,11.01
2023-03-26T02:33:39.786Z,10.74
2023-03-26T02:36:14.103Z,10.51
2023-03-26T02:39:05.167Z,10.26
2023-03-26T02:41:42.244Z,10.96
2023-03-26T02:44:15.078Z,11.51
2023-03-26T02:47:46.423Z,11.46
2023-03-26T02:50:36.896Z,11.11
2023-03-26T02:53:54.000Z,10.75
2023-03-26T02:56:46.740Z,10.43
2023-03-26T02:59:40.106Z,10.17
2023-03-26T03:02:29.513Z,10.96
2023-03-26T03:05:12.315Z,11.53
2023-03-26T03:07:48.457Z,11.42
2023-03-26T03:11:05.572Z,11.19
2023-03-26T03:13:42.656Z,10.80
2023-03-26T03:16:23.040Z,10.52
2023-03-26T03:18:59.993Z,10.25
2023-03-26T03:21:38.710Z,10.76
2023-03-26T03:24:43.832Z,11.32
2023-03-26T03:27:26.870Z,11.30
2023-03-26T03:30:03.000Z,11.02
2023-03-26T03:32:53.867Z,10.72
2023-03-26T03:35:54.038Z,10.44
2023-03-26T03:38:34.350Z,10.13
2023-03-26T03:41:23.766Z,9.90
2023-03-26T03:43:59.439Z,10.52
2023-03-26T03:46:35.856Z,11.06
2023-03-26T03:49:12.716Z,11.05
2023-03-26T03:51:41.253Z,10.83
2023-03-26T03:54:30.520Z,10.54
2023-03-26T03:57:19.351Z,10.23
2023-03-26T04:00:00.605Z,9.94
2023-03-26T04:02:38.456Z,10.44
2023-03-26T04:05:07.516Z,10.97
2023-03-26T04:07:39.639Z,10.96
2023-03-26T04:10:08.244Z,10.71
2023-03-26T04:12:55.458Z,10.36
2023-03-26T04:15:36.927Z,10.02
2023-03-26T04:18:04.619Z,9.75
2023-03-26T04:20:33.924Z,9.48
2023-03-26T04:23:01.690Z,9.89
2023-03-26T04:25:33.266Z,10.45
2023-03-26T04:28:36.514Z,10.45
2023-03-26T04:31:39.842Z,10.08
2023-03-26T04:34:13.713Z,9.78
2023-03-26T04:36:54.711Z,9.50
2023-03-26T04:39:29.413Z,9.26
2023-03-26T04:42:28.672Z,9.01
2023-03-26T04:45:15.764Z,9.74
2023-03-26T04:47:49.134Z,10.27
2023-03-26T04:50:30.826Z,10.25
2023-03-26T04:53:19.381Z,9.96
2023-03-26T04:56:37.574Z,9.60
2023-03-26T04:59:35.317Z,9.24
2023-03-26T05:02:14.866Z,9.02
2023-03-26T05:04:51.783Z,9.77
2023-03-26T05:07:24.301Z,10.44
2023-03-26T05:09:59.197Z,10.61
2023-03-26T05:13:21.711Z,10.62
2023-03-26T05:15:53.632Z,10.66
2023-03-26T05:18:46.781Z,10.63
2023-03-26T05:21:14.716Z,10.56
2023-03-26T05:24:05.711Z,11.33
2023-03-26T05:26:34.220Z,11.92
2023-03-26T05:29:03.116Z,11.99
2023-03-26T05:31:44.587Z,11.77
2023-03-26T05:34:14.641Z,11.46
2023-03-26T05:36:44.329Z,11.18
2023-03-26T05:39:31.978Z,10.94
2023-03-26T05:42:09.464Z,10.79
2023-03-26T05:45:02.711Z,11.50
2023-03-26T05:47:31.108Z,12.07
2023-03-26T05:50:08.025Z,12.23
2023-03-26T05:52:37.060Z,12.05
2023-03-26T05:55:34.993Z,11.92
2023-03-26T05:58:43.712Z,11.72
2023-03-26T06:01:31.008Z,11.64
2023-03-26T06:04:36.850Z,11.54
2023-03-26T06:07:43.132Z,11.45
2023-03-26T06:10:21.162Z,12.31
2023-03-26T06:12:49.808Z,12.81
2023-03-26T06:15:25.049Z,12.86
2023-03-26T06:18:07.701Z,12.80
2023-03-26T06:20:58.086Z,12.55
2023-03-26T06:23:51.853Z,12.13
2023-03-26T06:26:43.211Z,12.06
2023-03-26T06:29:24.529Z,12.05
2023-03-26T06:32:12.309Z,12.01
2023-03-26T06:35:30.542Z,11.97
2023-03-26T06:37:58.924Z,12.15
2023-03-26T06:40:31.202Z,12.36
2023-03-26T06:43:20.604Z,13.64
2023-03-26T06:45:55.873Z,14.73
2023-03-26T06:49:04.073Z,15.04
2023-03-26T06:51:50.660Z,15.07
2023-03-26T06:54:44.797Z,15.18
2023-03-26T06:57:34.591Z,15.47
2023-03-26T07:00:24.207Z,15.95
2023-03-26T07:03:11.651Z,16.63
2023-03-26T07:06:13.422Z,17.23
2023-03-26T07:09:10.075Z,17.91
2023-03-26T07:12:20.481Z,18.32
2023-03-26T07:15:04.182Z,18.54
2023-03-26T07:18:02.603Z,18.51
2023-03-26T07:20:33.418Z,18.57
2023-03-26T07:23:01.127Z,18.66
2023-03-26T07:25:48.466Z,18.45
2023-03-26T07:28:34.148Z,18.30
2023-03-26T07:31:16.239Z,17.97
2023-03-26T07:33:55.762Z,17.88
2023-03-26T07:37:04.580Z,17.68
2023-03-26T07:40:23.089Z,16.80
2023-03-26T07:43:26.954Z,16.65
2023-03-26T07:46:34.996Z,16.86
2023-03-26T07:49:59.079Z,17.66
2023-03-26T07:52:59.044Z,17.92
2023-03-26T07:56:00.838Z,17.88
2023-03-26T07:59:11.845Z,17.82
2023-03-26T08:02:17.076Z,17.83
2023-03-26T08:05:40.356Z,17.90
2023-03-26T08:08:36.756Z,17.96
2023-03-26T08:11:39.795Z,17.91
2023-03-26T08:14:38.260Z,17.67
2023-03-26T08:17:38.229Z,17.29
2023-03-26T08:20:35.865Z,16.67
2023-03-26T08:23:24.991Z,16.33
2023-03-26T08:25:59.514Z,16.51
2023-03-26T08:29:26.771Z,16.48
2023-03-26T08:32:09.867Z,15.88
2023-03-26T08:34:37.536Z,15.47
2023-03-26T08:37:18.034Z,14.96
2023-03-26T08:39:48.290Z,14.69
2023-03-26T08:42:41.086Z,14.56
2023-03-26T08:45:30.354Z,15.03
2023-03-26T08:48:11.361Z,15.50
2023-03-26T08:50:58.242Z,15.80
2023-03-26T08:53:40.926Z,16.04
2023-03-26T08:56:36.046Z,16.26
2023-03-26T08:59:39.060Z,16.05
2023-03-26T09:02:31.423Z,15.74
2023-03-26T09:05:11.755Z,15.45
2023-03-26T09:08:32.875Z,15.21
2023-03-26T09:11:26.193Z,14.81
2023-03-26T09:14:29.485Z,14.29
2023-03-26T09:17:45.129Z,13.33
2023-03-26T09:20:58.907Z,12.60
2023-03-26T09:24:00.216Z,12.09
2023-03-26T09:27:04.452Z,12.05
2023-03-26T09:29:53.642Z,12.85
2023-03-26T09:32:33.390Z,13.34
2023-03-26T09:35:47.223Z,13.69
2023-03-26T09:38:33.283Z,14.06
2023-03-26T09:41:17.915Z,14.77
2023-03-26T09:43:48.901Z,15.84
2023-03-26T09:46:32.252Z,16.69
2023-03-26T09:49:26.811Z,17.30
2023-03-26T09:52:32.145Z,17.41
2023-03-26T09:55:15.548Z,17.29
2023-03-26T09:57:53.900Z,17.06
2023-03-26T10:00:44.247Z,17.20
2023-03-26T10:03:44.975Z,17.69
2023-03-26T10:06:34.004Z,18.13
2023-03-26T10:09:03.394Z,18.65
2023-03-26T10:11:56.838Z,19.12
2023-03-26T10:14:45.157Z,19.81
2023-03-26T10:17:33.858Z,20.33
2023-03-26T10:20:41.690Z,20.11
2023-03-26T10:23:50.970Z,19.90
2023-03-26T10:26:24.719Z,19.48
2023-03-26T10:29:34.086Z,19.06
2023-03-26T10:32:17.283Z,18.47
2023-03-26T10:34:47.566Z,18.02
2023-03-26T10:37:50.190Z,17.68
2023-03-26T10:40:31.875Z,17.30
2023-03-26T10:43:40.585Z,17.01
2023-03-26T10:46:20.353Z,17.55
2023-03-26T10:49:12.796Z,17.76
2023-03-26T10:51:51.574Z,18.17
2023-03-26T10:54:58.488Z,18.33
2023-03-26T10:57:28.368Z,18.47
2023-03-26T10:59:57.569Z,18.46
2023-03-26T11:05:27.901Z,18.11
2023-03-26T11:08:13.045Z,18.38
2023-03-26T11:10:57.469Z,18.85
2023-03-26T11:13:43.291Z,19.55
2023-03-26T11:16:22.007Z,20.08
2023-03-26T11:19:11.039Z,20.56
2023-03-26T11:21:59.464Z,20.87
2023-03-26T11:24:33.564Z,21.12
2023-03-26T11:27:15.532Z,21.31
2023-03-26T11:30:11.858Z,21.83
2023-03-26T11:32:45.401Z,22.40
2023-03-26T11:35:40.540Z,22.41
2023-03-26T11:38:29.865Z,21.84
2023-03-26T11:40:57.421Z,21.79
2023-03-26T11:43:43.532Z,21.97
2023-03-26T11:46:13.014Z,21.97
2023-03-26T11:48:45.008Z,22.08
2023-03-26T11:51:19.243Z,22.19
2023-03-26T11:53:47.388Z,22.37
2023-03-26T11:56:23.435Z,22.20
2023-03-26T11:59:05.583Z,21.75
2023-03-26T12:01:52.825Z,21.39
2023-03-26T12:04:35.218Z,21.18
2023-03-26T12:07:09.762Z,21.23
2023-03-26T12:09:37.273Z,21.31
2023-03-26T12:12:13.254Z,21.61
2023-03-26T12:14:42.515Z,21.60
2023-03-26T12:17:31.985Z,21.70
2023-03-26T12:19:59.377Z,21.60
2023-03-26T12:22:36.422Z,21.76
2023-03-26T12:25:26.005Z,22.07
2023-03-26T12:28:04.074Z,22.06
2023-03-26T12:31:04.003Z,22.03
2023-03-26T12:33:38.812Z,22.06
2023-03-26T12:36:26.469Z,22.17
2023-03-26T12:39:17.091Z,21.69
2023-03-26T12:44:42.132Z,20.94
2023-03-26T12:44:52.814Z,20.88
2023-03-26T12:47:59.994Z,21.02
2023-03-26T12:50:12.608Z,21.48
2023-03-26T12:52:53.121Z,21.35
2023-03-26T12:55:39.869Z,20.73
2023-03-26T12:58:22.488Z,20.10
2023-03-26T13:00:56.105Z,19.25
2023-03-26T13:03:37.997Z,18.73
2023-03-26T13:06:58.939Z,18.23
2023-03-26T13:09:37.958Z,17.60
2023-03-26T13:12:12.238Z,17.38
2023-03-26T13:14:54.770Z,17.39
2023-03-26T13:17:52.842Z,17.54
2023-03-26T13:20:51.506Z,17.32
2023-03-26T13:23:26.768Z,17.09
2023-03-26T13:26:07.017Z,17.42
2023-03-26T13:29:01.072Z,17.91
2023-03-26T13:31:35.138Z,18.41
2023-03-26T13:34:16.175Z,18.56
2023-03-26T13:36:59.916Z,18.14
2023-03-26T13:39:38.875Z,17.81
2023-03-26T13:42:18.764Z,17.54
2023-03-26T13:44:48.616Z,17.02
2023-03-26T13:47:20.678Z,16.46
2023-03-26T13:49:53.032Z,16.18
2023-03-26T13:52:35.415Z,15.99
2023-03-26T13:55:31.187Z,15.92
2023-03-26T13:58:05.340Z,16.15
2023-03-26T14:00:47.789Z,16.56
2023-03-26T14:03:26.866Z,16.95
2023-03-26T14:05:55.651Z,17.34
2023-03-26T14:08:33.430Z,17.70
2023-03-26T14:11:28.626Z,17.90
2023-03-26T14:14:06.921Z,17.81
2023-03-26T14:16:38.533Z,17.69
2023-03-26T14:19:24.835Z,17.49
2023-03-26T14:22:04.905Z,17.22
2023-03-26T14:24:43.124Z,16.85
2023-03-26T14:27:41.408Z,16.39
2023-03-26T14:30:23.148Z,16.02
2023-03-26T14:33:30.366Z,15.97
2023-03-26T14:36:01.171Z,15.89
2023-03-26T14:38:56.804Z,15.86
2023-03-26T14:41:23.797Z,15.91
2023-03-26T14:44:09.752Z,15.96
2023-03-26T14:46:46.520Z,16.02
2023-03-26T14:49:39.991Z,16.02
2023-03-26T14:52:39.529Z,15.98
2023-03-26T14:55:16.947Z,15.84
2023-03-26T14:57:51.437Z,15.85
2023-03-26T15:00:28.042Z,15.73
2023-03-26T15:03:08.249Z,15.77
2023-03-26T15:06:18.713Z,15.65
2023-03-26T15:08:58.718Z,15.52
2023-03-26T15:11:45.335Z,15.40
2023-03-26T15:14:34.036Z,15.32
2023-03-26T15:17:23.114Z,15.17
2023-03-26T15:20:02.644Z,15.06
2023-03-26T15:22:48.969Z,14.91
2023-03-26T15:25:22.265Z,14.74
2023-03-26T15:28:09.659Z,14.66
2023-03-26T15:31:07.493Z,14.58
2023-03-26T15:33:45.735Z,14.49
2023-03-26T15:36:28.294Z,14.37
2023-03-26T15:39:20.001Z,14.33
2023-03-26T15:41:47.382Z,14.34
2023-03-26T15:44:25.581Z,14.26
2023-03-26T15:47:02.118Z,14.14
2023-03-26T15:49:42.981Z,14.03
2023-03-26T15:52:22.147Z,13.97
2023-03-26T15:55:27.908Z,13.90
2023-03-26T15:58:10.300Z,13.79
2023-03-26T16:00:42.235Z,13.75
2023-03-26T16:03:10.093Z,13.70
2023-03-26T16:06:14.251Z,13.66
2023-03-26T16:09:25.877Z,13.57
2023-03-26T16:12:31.891Z,13.47
2023-03-26T16:15:28.440Z,13.36
2023-03-26T16:18:12.017Z,13.26
2023-03-26T16:20:51.064Z,13.18
2023-03-26T16:23:31.041Z,13.09
2023-03-26T16:26:09.560Z,13.01
2023-03-26T16:28:49.531Z,12.92
2023-03-26T16:31:36.787Z,12.85
2023-03-26T16:34:03.420Z,12.79
2023-03-26T16:36:34.617Z,12.74
2023-03-26T16:39:10.416Z,12.69
2023-03-26T16:41:45.353Z,12.60
2023-03-26T16:44:13.910Z,12.50
2023-03-26T16:46:43.439Z,12.38
2023-03-26T16:49:18.479Z,12.23
2023-03-26T16:51:51.668Z,12.12
2023-03-26T16:54:25.245Z,12.04
2023-03-26T16:57:28.064Z,11.99
2023-03-26T17:00:16.680Z,11.95
2023-03-26T17:02:48.307Z,11.89
2023-03-26T17:05:51.224Z,11.83
2023-03-26T17:08:37.100Z,11.79
2023-03-26T17:11:38.391Z,11.78
2023-03-26T17:14:17.629Z,11.77
2023-03-26T17:17:03.027Z,11.78
2023-03-26T17:19:42.392Z,11.78
2023-03-26T17:22:21.586Z,11.76
2023-03-26T17:25:21.008Z,11.74
2023-03-26T17:28:21.240Z,11.71
2023-03-26T17:31:11.029Z,11.68
2023-03-26T17:33:44.809Z,11.64
2023-03-26T17:36:12.051Z,11.60
2023-03-26T17:38:47.421Z,11.55
2023-03-26T17:41:17.872Z,11.49
2023-03-26T17:43:52.420Z,11.42
2023-03-26T17:46:21.010Z,11.35
2023-03-26T17:48:57.052Z,11.27
2023-03-26T17:51:58.101Z,11.17
2023-03-26T17:54:39.470Z,11.09
2023-03-26T17:57:14.663Z,11.02
2023-03-26T17:59:43.235Z,10.95
2023-03-26T18:02:18.643Z,10.84
2023-03-26T18:04:48.353Z,11.41
2023-03-26T18:07:45.214Z,12.07
2023-03-26T18:10:47.064Z,12.18
2023-03-26T18:13:31.665Z,12.01
2023-03-26T18:16:03.720Z,11.82
2023-03-26T18:18:31.154Z,11.61
2023-03-26T18:20:58.849Z,11.41
2023-03-26T18:23:38.913Z,11.28
2023-03-26T18:26:14.265Z,11.18
2023-03-26T18:28:53.292Z,11.09
2023-03-26T18:31:25.005Z,11.11
2023-03-26T18:33:59.178Z,11.17
2023-03-26T18:36:27.936Z,11.22
2023-03-26T18:38:58.801Z,11.24
2023-03-26T18:41:31.286Z,11.27
2023-03-26T18:44:03.148Z,11.28
2023-03-26T18:46:35.837Z,11.32
2023-03-26T18:49:08.968Z,11.34
2023-03-26T18:51:46.480Z,11.35
2023-03-26T18:54:23.650Z,11.33
2023-03-26T18:57:31.607Z,11.32
2023-03-26T19:00:20.164Z,11.33
2023-03-26T19:02:49.827Z,11.34
2023-03-26T19:05:17.640Z,11.31
2023-03-26T19:07:50.272Z,11.32
2023-03-26T19:10:22.345Z,11.34
2023-03-26T19:12:59.112Z,11.33
2023-03-26T19:15:29.983Z,11.29
2023-03-26T19:18:06.986Z,11.21
2023-03-26T19:20:48.843Z,11.10
2023-03-26T19:23:18.290Z,10.99
2023-03-26T19:25:57.282Z,10.89
2023-03-26T19:28:33.044Z,10.79
2023-03-26T19:31:28.357Z,10.69
2023-03-26T19:33:59.371Z,10.56
2023-03-26T19:36:30.300Z,10.43
2023-03-26T19:39:00.886Z,10.32
2023-03-26T19:41:42.748Z,10.23
2023-03-26T19:44:33.945Z,10.11
2023-03-26T19:47:07.032Z,10.89
2023-03-26T19:49:54.637Z,11.52
2023-03-26T19:52:27.959Z,11.57
2023-03-26T19:55:22.622Z,11.40
2023-03-26T19:57:49.882Z,11.12
2023-03-26T20:00:19.097Z,10.98
2023-03-26T20:02:47.145Z,10.86
2023-03-26T20:05:26.067Z,10.72
2023-03-26T20:07:59.846Z,10.61
2023-03-26T20:10:30.647Z,10.51
2023-03-26T20:12:58.457Z,10.44
2023-03-26T20:15:32.397Z,10.39
2023-03-26T20:18:01.414Z,10.34
2023-03-26T20:20:29.091Z,10.34
2023-03-26T20:22:56.452Z,10.35
2023-03-26T20:25:31.120Z,10.36
2023-03-26T20:28:03.308Z,10.34
2023-03-26T20:30:37.711Z,10.34
2023-03-26T20:33:25.432Z,10.28
2023-03-26T20:35:56.864Z,11.01
2023-03-26T20:38:38.969Z,11.67
2023-03-26T20:41:17.656Z,11.81
2023-03-26T20:43:47.274Z,11.68
2023-03-26T20:46:30.984Z,11.46
2023-03-26T20:49:01.133Z,11.20
2023-03-26T20:51:33.673Z,10.95
2023-03-26T20:54:08.968Z,10.74
2023-03-26T20:56:42.402Z,10.54
2023-03-26T20:59:12.831Z,10.41
2023-03-26T21:01:49.926Z,10.35
2023-03-26T21:04:21.706Z,11.04
2023-03-26T21:07:07.189Z,11.72
2023-03-26T21:10:11.721Z,11.82
2023-03-26T21:13:08.325Z,11.59
2023-03-26T21:15:40.929Z,11.27
2023-03-26T21:18:17.355Z,10.96
2023-03-26T21:20:52.542Z,10.67
2023-03-26T21:23:36.827Z,10.41
2023-03-26T21:26:25.301Z,11.00
2023-03-26T21:28:53.922Z,11.48
2023-03-26T21:31:26.533Z,11.43
2023-03-26T21:33:55.412Z,11.16
2023-03-26T21:36:26.180Z,10.83
2023-03-26T21:39:05.478Z,10.53
2023-03-26T21:42:04.987Z,10.25
2023-03-26T21:44:59.097Z,9.95
2023-03-26T21:47:37.056Z,10.63
2023-03-26T21:50:25.608Z,11.16
2023-03-26T21:52:59.327Z,11.06
2023-03-26T21:55:30.827Z,10.69
2023-03-26T21:58:41.188Z,10.32
2023-03-26T22:01:56.079Z,9.91
2023-03-26T22:04:34.840Z,9.53
2023-03-26T22:07:12.095Z,9.26
2023-03-26T22:09:45.280Z,9.76
2023-03-26T22:12:15.155Z,10.27
2023-03-26T22:14:47.894Z,10.24
2023-03-26T22:17:15.178Z,9.98
2023-03-26T22:20:02.367Z,9.65
2023-03-26T22:22:29.795Z,9.31
2023-03-26T22:25:02.358Z,9.02
2023-03-26T22:27:44.926Z,8.75
2023-03-26T22:30:13.276Z,9.21
2023-03-26T22:32:45.782Z,9.75
2023-03-26T22:35:13.546Z,9.82
2023-03-26T22:37:43.925Z,9.63
2023-03-26T22:40:38.792Z,9.39
2023-03-26T22:43:11.496Z,9.11
2023-03-26T22:45:49.578Z,8.87
2023-03-26T22:48:20.029Z,8.62
2023-03-26T22:51:05.617Z,9.07
2023-03-26T22:53:56.443Z,9.66
2023-03-26T22:56:35.072Z,9.57
2023-03-26T22:59:14.244Z,9.25
2023-03-26T23:01:42.025Z,8.90
2023-03-26T23:04:12.234Z,8.61
2023-03-26T23:07:29.360Z,8.20
2023-03-26T23:10:16.661Z,7.90
2023-03-26T23:13:19.598Z,8.49
2023-03-26T23:16:00.108Z,9.10
2023-03-26T23:18:49.885Z,9.03
2023-03-26T23:21:23.048Z,8.73
2023-03-26T23:24:00.139Z,8.41
2023-03-26T23:26:43.859Z,8.10
2023-03-26T23:29:22.904Z,7.78
2023-03-26T23:31:54.745Z,7.50
2023-03-26T23:34:51.675Z,7.89
2023-03-26T23:37:35.189Z,8.49
2023-03-26T23:40:10.420Z,8.42
2023-03-26T23:42:38.052Z,8.16
2023-03-26T23:45:10.012Z,7.86
2023-03-26T23:47:59.483Z,7.53
2023-03-26T23:50:30.363Z,7.27
2023-03-26T23:53:28.873Z,7.03
2023-03-26T23:56:13.337Z,7.71
2023-03-26T23:58:50.318Z,8.21
